Williamsburg, Kentucky
Current Conditions -  °F | °C
As of 12:53 AM on Friday 19 Dec 2014 (Local Time) from KLOZ Reporting Station
Overcast Overcast  
Wind Chill: 30°   Ceiling: 5000
Heat Index: 34°   Visibility: 10mi
Dew Point: 25°   Wind: 5mph
Humidity: 70%   Direction: 360°N
Pressure: 30.21"   Gusts: NA
Location:  36.74°N, 84.16°W
Report Text: KLOZ 190553Z AUTO 36004KT 10SM SCT041 BKN050 OVC060 01/M04 A3021 RMK AO2 SLP237 T00111039 10017 20011 50003
Loading
Personal Weather Stations






























Interactive Weather Map New forecast layout! Learn more

10-Day Weather Forecast

Advertisements
Track Severe Weather on mobile